Time;durP1;ratioP1;P1;durP2;ratioP2;P2;SDS_P1;SDS_P2;PMS_P1;PMS_P2;Temp;Humidity;BMP_temperature;BMP_pressure;BME280_temperature;BME280_humidity;BME280_pressure;Samples;Min_cycle;Max_cycle;Signal;HPM_P1;HPM_P2
2022/12/04 00:01:03;;;;;;;;;15.00;11.00;;;;;;;;5070503;28;11484;-69
2022/12/04 00:03:29;;;;;;;;;15.75;14.75;;;;;;;;5070440;28;8795;-69
2022/12/04 00:06:14;;;;;;;;;14.25;14.00;;;;;;;;5070313;28;10989;-70
2022/12/04 00:08:40;;;;;;;;;12.00;11.25;;;;;;;;5070074;28;8807;-71
2022/12/04 00:11:06;;;;;;;;;7.25;7.25;;;;;;;;5070224;28;11482;-68
2022/12/04 00:13:32;;;;;;;;;6.00;6.00;;;;;;;;5070464;28;8792;-69
2022/12/04 00:15:58;;;;;;;;;9.00;8.25;;;;;;;;5070111;28;11450;-70
2022/12/04 00:18:23;;;;;;;;;5.00;5.00;;;;;;;;5070137;28;11434;-69
2022/12/04 00:20:49;;;;;;;;;7.25;6.75;;;;;;;;5070766;28;8795;-70
2022/12/04 00:23:14;;;;;;;;;11.75;7.75;;;;;;;;5070045;28;8796;-69
2022/12/04 00:25:39;;;;;;;;;7.25;5.75;;;;;;;;5070012;28;8808;-70
2022/12/04 00:28:05;;;;;;;;;5.25;5.25;;;;;;;;5052280;28;8902;-70
2022/12/04 00:30:30;;;;;;;;;5.00;5.00;;;;;;;;5069921;28;8800;-70
2022/12/04 00:32:55;;;;;;;;;6.75;5.00;;;;;;;;5063523;28;8816;-71
2022/12/04 00:35:21;;;;;;;;;5.00;5.00;;;;;;;;5053733;28;8953;-70
2022/12/04 00:37:46;;;;;;;;;6.00;3.00;;;;;;;;5032000;28;8948;-70
2022/12/04 00:40:11;;;;;;;;;6.50;3.50;;;;;;;;5050027;28;8882;-69
2022/12/04 00:42:37;;;;;;;;;6.00;6.00;;;;;;;;5049755;28;8814;-69
2022/12/04 00:45:02;;;;;;;;;5.00;3.00;;;;;;;;5049364;28;8782;-70
2022/12/04 00:47:27;;;;;;;;;5.50;5.50;;;;;;;;5049503;28;9513;-69
2022/12/04 00:49:53;;;;;;;;;7.00;5.25;;;;;;;;5049647;28;8779;-69
2022/12/04 00:52:18;;;;;;;;;5.00;5.00;;;;;;;;5048897;28;9604;-70
2022/12/04 00:54:43;;;;;;;;;5.00;5.00;;;;;;;;5049610;28;8803;-70
2022/12/04 00:57:09;;;;;;;;;4.50;3.00;;;;;;;;5049562;28;8818;-69
2022/12/04 00:59:35;;;;;;;;;4.00;4.00;;;;;;;;5049657;28;8778;-69
2022/12/04 01:02:01;;;;;;;;;6.50;6.25;;;;;;;;5031617;28;8806;-70
2022/12/04 01:04:26;;;;;;;;;4.50;4.50;;;;;;;;5049611;28;11472;-69
2022/12/04 01:06:51;;;;;;;;;7.25;4.50;;;;;;;;5049495;28;8830;-69
2022/12/04 01:09:17;;;;;;;;;8.25;7.00;;;;;;;;5049523;28;8795;-69
2022/12/04 01:11:43;;;;;;;;;8.75;7.50;;;;;;;;5049376;28;8810;-70
2022/12/04 01:14:08;;;;;;;;;7.50;6.00;;;;;;;;5049447;28;8945;-69
2022/12/04 01:16:35;;;;;;;;;8.50;8.50;;;;;;;;5052160;28;8826;-69
2022/12/04 01:19:00;;;;;;;;;9.75;9.25;;;;;;;;5033787;28;9639;-69
2022/12/04 01:21:26;;;;;;;;;6.75;6.00;;;;;;;;5049229;28;11451;-69
2022/12/04 01:24:01;;;;;;;;;7.75;6.50;;;;;;;;5049240;28;8834;-70
2022/12/04 01:26:26;;;;;;;;;7.50;6.50;;;;;;;;5049062;28;8881;-70
2022/12/04 01:28:51;;;;;;;;;8.25;6.50;;;;;;;;5048801;28;11434;-71
2022/12/04 01:31:18;;;;;;;;;10.75;7.00;;;;;;;;5049202;28;8806;-70
2022/12/04 01:33:43;;;;;;;;;12.00;8.25;;;;;;;;5049106;28;8790;-68
2022/12/04 01:36:13;;;;;;;;;9.75;1.00;;;;;;;;5049205;28;11457;-68
2022/12/04 01:38:38;;;;;;;;;12.00;8.25;;;;;;;;5049211;28;8810;-68
2022/12/04 01:41:04;;;;;;;;;12.50;10.50;;;;;;;;5049001;28;11440;-68
2022/12/04 14:52:31;;;;;;;;;10.00;10.00;;;;;;;;5104320;27;13401;-74
2022/12/04 14:55:05;;;;;;;;;13.75;8.25;;;;;;;;5104583;28;11595;-74
2022/12/04 14:57:52;;;;;;;;;13.75;9.00;;;;;;;;5104437;28;11496;-73
2022/12/04 15:00:21;;;;;;;;;11.25;11.25;;;;;;;;5104468;28;11493;-74
2022/12/04 15:02:48;;;;;;;;;10.50;9.00;;;;;;;;5102306;28;12294;-75
2022/12/04 15:05:30;;;;;;;;;10.50;9.00;;;;;;;;5103594;28;11435;-74
2022/12/04 15:07:58;;;;;;;;;11.25;9.00;;;;;;;;5104558;28;11458;-74
2022/12/04 15:13:46;;;;;;;;;9.50;7.50;;;;;;;;5102388;28;11499;-74
2022/12/04 15:16:15;;;;;;;;;12.75;11.00;;;;;;;;5095797;28;11508;-74
2022/12/04 15:18:40;;;;;;;;;9.50;8.75;;;;;;;;5107116;28;11476;-73
2022/12/04 15:21:15;;;;;;;;;9.50;8.50;;;;;;;;5107201;28;11426;-73
2022/12/04 15:23:40;;;;;;;;;10.50;8.00;;;;;;;;5106616;28;8825;-73
2022/12/04 15:26:20;;;;;;;;;10.50;9.50;;;;;;;;5111169;27;12144;-73
2022/12/04 15:29:00;;;;;;;;;11.00;11.00;;;;;;;;5110108;27;8800;-74
2022/12/04 15:31:37;;;;;;;;;12.75;9.50;;;;;;;;5105329;28;11391;-73
2022/12/04 15:34:07;;;;;;;;;16.50;12.75;;;;;;;;5106842;28;11379;-73
2022/12/04 15:36:32;;;;;;;;;17.00;11.00;;;;;;;;5106340;28;11413;-74
2022/12/04 15:38:59;;;;;;;;;15.00;13.00;;;;;;;;5124101;27;12304;-74
2022/12/04 15:41:34;;;;;;;;;13.25;11.50;;;;;;;;5124512;27;8912;-75
2022/12/04 15:44:00;;;;;;;;;15.00;9.25;;;;;;;;5106471;28;11398;-74
2022/12/04 15:46:32;;;;;;;;;12.00;10.75;;;;;;;;5106421;28;12113;-74
2022/12/04 15:49:04;;;;;;;;;21.25;18.00;;;;;;;;5122502;27;8841;-73
2022/12/04 15:51:30;;;;;;;;;40.75;35.00;;;;;;;;5123594;27;11510;-74
2022/12/04 15:53:55;;;;;;;;;14.00;12.75;;;;;;;;5126947;27;11519;-73
2022/12/04 15:56:20;;;;;;;;;17.75;14.75;;;;;;;;5126957;27;8781;-74
2022/12/04 15:58:57;;;;;;;;;13.25;12.75;;;;;;;;5110726;27;8811;-78
2022/12/04 16:01:22;;;;;;;;;20.50;20.00;;;;;;;;5103547;28;8828;-73
2022/12/04 16:03:49;;;;;;;;;16.25;15.00;;;;;;;;5092476;28;11507;-73
2022/12/04 16:06:17;;;;;;;;;13.75;13.75;;;;;;;;5092608;28;8808;-73
2022/12/04 16:08:43;;;;;;;;;19.75;16.50;;;;;;;;5092775;28;11503;-73
2022/12/04 16:11:19;;;;;;;;;16.00;14.00;;;;;;;;5091247;28;12263;-73
2022/12/04 16:13:44;;;;;;;;;15.75;15.75;;;;;;;;5092580;28;11588;-73
2022/12/04 16:16:11;;;;;;;;;17.75;14.00;;;;;;;;5092657;28;11473;-73
2022/12/04 16:18:37;;;;;;;;;17.50;16.25;;;;;;;;5092478;28;8788;-73
2022/12/04 16:21:02;;;;;;;;;12.75;11.75;;;;;;;;5092286;28;11513;-73
2022/12/04 16:23:27;;;;;;;;;20.50;18.00;;;;;;;;5092739;28;8830;-73
2022/12/04 16:25:53;;;;;;;;;15.50;15.50;;;;;;;;5094953;28;8808;-73
2022/12/04 16:28:18;;;;;;;;;18.00;18.00;;;;;;;;5112931;27;8808;-73
2022/12/04 16:30:43;;;;;;;;;14.25;13.00;;;;;;;;5100495;28;8861;-73
2022/12/04 16:33:12;;;;;;;;;15.00;12.00;;;;;;;;5080671;28;8802;-73
2022/12/04 16:35:37;;;;;;;;;18.75;17.25;;;;;;;;5071732;28;8803;-73
2022/12/04 16:38:03;;;;;;;;;17.00;17.00;;;;;;;;5071782;28;11543;-73
2022/12/04 16:40:28;;;;;;;;;19.25;18.25;;;;;;;;5070662;28;8803;-73
2022/12/04 16:42:53;;;;;;;;;42.25;36.75;;;;;;;;5072034;28;8825;-73
2022/12/04 16:45:25;;;;;;;;;36.50;34.00;;;;;;;;5071960;28;8853;-73
2022/12/04 16:47:51;;;;;;;;;32.75;30.75;;;;;;;;5071670;28;8771;-73
2022/12/04 16:50:16;;;;;;;;;33.50;31.00;;;;;;;;5070139;28;11563;-73
2022/12/04 16:52:41;;;;;;;;;36.50;35.00;;;;;;;;5071431;28;11530;-73
2022/12/04 16:55:20;;;;;;;;;29.75;28.00;;;;;;;;5071581;28;8802;-76
2022/12/04 16:57:46;;;;;;;;;28.25;24.50;;;;;;;;5107974;28;8801;-77
2022/12/04 17:00:13;;;;;;;;;25.75;24.75;;;;;;;;5112306;28;11514;-75
2022/12/04 17:02:38;;;;;;;;;12.25;12.25;;;;;;;;5102338;28;8836;-76
2022/12/04 17:05:03;;;;;;;;;29.50;28.50;;;;;;;;5089663;28;12309;-77
2022/12/04 17:07:29;;;;;;;;;28.50;26.50;;;;;;;;5090059;28;8909;-75
2022/12/04 17:09:54;;;;;;;;;34.50;31.00;;;;;;;;5091613;28;8891;-77
2022/12/04 17:12:19;;;;;;;;;30.50;30.25;;;;;;;;5087923;28;8969;-72
2022/12/04 17:14:44;;;;;;;;;30.75;27.75;;;;;;;;5088858;28;8776;-82
2022/12/04 17:17:10;;;;;;;;;36.50;33.00;;;;;;;;5088818;28;8816;-71
2022/12/04 17:19:35;;;;;;;;;43.75;36.25;;;;;;;;5091130;28;8784;-74
2022/12/04 17:22:00;;;;;;;;;43.25;36.00;;;;;;;;5089800;28;8820;-76
2022/12/04 17:24:25;;;;;;;;;36.00;35.25;;;;;;;;5091048;28;8787;-78
2022/12/04 17:26:51;;;;;;;;;34.75;30.75;;;;;;;;5101315;28;8830;-78
2022/12/04 17:29:16;;;;;;;;;30.25;29.25;;;;;;;;5111414;28;8908;-90
2022/12/04 17:31:41;;;;;;;;;25.50;22.50;;;;;;;;5111258;28;8849;-78
2022/12/04 17:34:07;;;;;;;;;32.75;27.50;;;;;;;;5111525;28;8917;-74
2022/12/04 17:36:32;;;;;;;;;4.00;1.50;;;;;;;;5111104;28;8794;-76
2022/12/04 17:39:00;;;;;;;;;25.00;24.00;;;;;;;;5111401;28;8797;-76
2022/12/04 17:41:25;;;;;;;;;25.75;22.75;;;;;;;;5111558;28;8816;-77
2022/12/04 17:43:50;;;;;;;;;27.00;26.00;;;;;;;;5110751;28;11596;-77
2022/12/04 17:46:20;;;;;;;;;29.75;25.50;;;;;;;;5110746;28;8805;-77
2022/12/04 17:48:45;;;;;;;;;30.25;27.25;;;;;;;;5090189;28;8820;-75
2022/12/04 17:51:12;;;;;;;;;31.00;26.75;;;;;;;;5088907;28;11160;-75
2022/12/04 17:53:37;;;;;;;;;26.75;23.00;;;;;;;;5090702;28;8826;-73
2022/12/04 17:56:04;;;;;;;;;39.50;32.75;;;;;;;;5090684;28;11484;-76
2022/12/04 17:58:30;;;;;;;;;40.25;34.75;;;;;;;;5091105;28;8915;-74
2022/12/04 18:00:59;;;;;;;;;31.25;28.50;;;;;;;;5090283;28;11498;-74
2022/12/04 18:03:25;;;;;;;;;35.25;35.25;;;;;;;;5088906;28;11710;-76
2022/12/04 18:05:50;;;;;;;;;36.00;30.25;;;;;;;;5090093;28;11602;-75
2022/12/04 18:08:15;;;;;;;;;32.25;31.50;;;;;;;;5093011;28;8823;-73
2022/12/04 18:10:40;;;;;;;;;31.00;28.25;;;;;;;;5089430;28;8836;-73
2022/12/04 18:13:06;;;;;;;;;34.00;31.25;;;;;;;;5081588;28;8876;-74
2022/12/04 18:15:33;;;;;;;;;35.25;35.00;;;;;;;;5090460;28;9514;-74
2022/12/04 18:17:58;;;;;;;;;36.25;36.25;;;;;;;;5090238;28;8792;-75
2022/12/04 18:20:23;;;;;;;;;44.50;39.25;;;;;;;;5089221;28;11549;-74
2022/12/04 18:22:49;;;;;;;;;40.75;37.25;;;;;;;;5089128;28;8859;-73
2022/12/04 18:25:14;;;;;;;;;39.00;35.75;;;;;;;;5089737;28;8804;-73
2022/12/04 18:27:39;;;;;;;;;41.50;38.00;;;;;;;;5089393;28;8807;-74
2022/12/04 18:30:05;;;;;;;;;37.50;32.00;;;;;;;;5088197;28;8832;-73
2022/12/04 18:32:30;;;;;;;;;39.50;38.00;;;;;;;;5088744;28;8818;-74
2022/12/04 18:34:55;;;;;;;;;36.50;33.50;;;;;;;;5088599;28;8927;-73
2022/12/04 18:37:21;;;;;;;;;33.25;31.50;;;;;;;;5090144;28;8865;-78
2022/12/04 18:39:47;;;;;;;;;44.25;37.50;;;;;;;;5089664;28;9518;-74
2022/12/04 18:42:13;;;;;;;;;32.50;30.00;;;;;;;;5088632;28;8818;-75
2022/12/04 18:44:38;;;;;;;;;32.25;28.75;;;;;;;;5090090;28;11506;-75
2022/12/04 18:47:03;;;;;;;;;49.25;43.50;;;;;;;;5108318;28;8804;-75
2022/12/04 18:49:29;;;;;;;;;46.00;40.00;;;;;;;;5090750;28;8830;-74
2022/12/04 18:51:57;;;;;;;;;45.50;35.75;;;;;;;;5088561;28;8844;-74
2022/12/04 18:54:22;;;;;;;;;36.75;34.00;;;;;;;;5089988;28;8796;-74
2022/12/04 18:56:48;;;;;;;;;14.00;13.50;;;;;;;;5089561;28;11549;-76
2022/12/04 18:59:15;;;;;;;;;43.25;39.25;;;;;;;;5090087;28;8818;-74
2022/12/04 19:01:40;;;;;;;;;41.00;35.25;;;;;;;;5088846;28;9528;-75
2022/12/04 19:04:07;;;;;;;;;55.00;42.25;;;;;;;;5089730;28;11636;-75
2022/12/04 19:06:39;;;;;;;;;46.67;39.00;;;;;;;;5089863;28;9523;-76
2022/12/04 19:09:06;;;;;;;;;56.00;46.00;;;;;;;;5088219;28;11537;-76
2022/12/04 19:11:31;;;;;;;;;52.25;43.00;;;;;;;;5087960;28;9671;-75
2022/12/04 19:13:57;;;;;;;;;47.75;38.50;;;;;;;;5089726;28;11523;-74
2022/12/04 19:16:22;;;;;;;;;24.50;23.75;;;;;;;;5102217;28;8821;-76
2022/12/04 19:18:48;;;;;;;;;27.25;25.50;;;;;;;;5109810;28;8925;-75
2022/12/04 19:21:14;;;;;;;;;27.50;23.50;;;;;;;;5105900;28;8848;-75
2022/12/04 19:23:39;;;;;;;;;22.25;19.25;;;;;;;;5109789;28;8878;-76
2022/12/04 19:26:05;;;;;;;;;19.25;19.25;;;;;;;;5110133;28;8778;-76
2022/12/04 19:28:30;;;;;;;;;25.00;22.00;;;;;;;;5109494;28;8812;-75
2022/12/04 19:30:55;;;;;;;;;19.50;18.75;;;;;;;;5107688;28;9586;-78
2022/12/04 19:33:21;;;;;;;;;22.00;20.00;;;;;;;;5108436;28;8809;-79
2022/12/04 19:35:57;;;;;;;;;18.50;17.25;;;;;;;;5110050;28;8809;-77
2022/12/04 19:38:23;;;;;;;;;17.50;17.50;;;;;;;;5111673;28;8801;-80
2022/12/04 19:40:48;;;;;;;;;20.00;19.00;;;;;;;;5113388;28;11515;-80
2022/12/04 19:43:13;;;;;;;;;18.50;13.50;;;;;;;;5092602;28;8800;-78
2022/12/04 19:45:45;;;;;;;;;21.50;19.00;;;;;;;;5099694;28;8813;-80
2022/12/04 19:48:11;;;;;;;;;20.00;18.00;;;;;;;;5112060;28;8852;-79
2022/12/04 19:50:36;;;;;;;;;18.25;13.25;;;;;;;;5112035;28;12278;-76
2022/12/04 19:53:01;;;;;;;;;17.50;14.25;;;;;;;;5093645;28;8898;-80
2022/12/04 19:55:27;;;;;;;;;20.25;14.25;;;;;;;;5097931;28;8790;-73
2022/12/04 19:57:52;;;;;;;;;13.75;13.50;;;;;;;;5092087;28;8792;-75
2022/12/04 20:00:17;;;;;;;;;14.75;14.00;;;;;;;;5090341;28;8812;-75
2022/12/04 20:02:42;;;;;;;;;14.75;13.00;;;;;;;;5089176;28;8830;-75
2022/12/04 20:05:08;;;;;;;;;13.75;13.00;;;;;;;;5091047;28;8796;-74
2022/12/04 20:07:33;;;;;;;;;17.00;14.00;;;;;;;;5091226;28;8796;-75
2022/12/04 20:09:58;;;;;;;;;12.50;11.00;;;;;;;;5091254;28;9621;-76
2022/12/04 20:12:24;;;;;;;;;18.25;14.00;;;;;;;;5090229;28;8906;-77
2022/12/04 20:14:49;;;;;;;;;13.50;12.00;;;;;;;;5091312;28;8792;-78
2022/12/04 20:17:14;;;;;;;;;16.75;13.00;;;;;;;;5092380;28;8812;-79
2022/12/04 20:19:39;;;;;;;;;11.50;9.50;;;;;;;;5091022;28;8792;-77
2022/12/04 20:22:05;;;;;;;;;10.50;10.25;;;;;;;;5091383;28;8812;-78
2022/12/04 20:24:30;;;;;;;;;9.50;9.50;;;;;;;;5091244;28;8816;-76
2022/12/04 20:26:55;;;;;;;;;10.75;10.00;;;;;;;;5092686;28;8788;-76
2022/12/04 20:29:21;;;;;;;;;13.00;11.25;;;;;;;;5092245;28;8808;-75
2022/12/04 20:31:46;;;;;;;;;10.00;10.00;;;;;;;;5095178;28;8828;-74
2022/12/04 20:34:16;;;;;;;;;6.00;6.00;;;;;;;;5080190;28;8836;-77
2022/12/04 20:36:42;;;;;;;;;9.25;6.00;;;;;;;;5092473;28;8804;-81
2022/12/04 20:39:08;;;;;;;;;7.00;7.00;;;;;;;;5092286;28;11354;-86
2022/12/04 20:41:33;;;;;;;;;9.25;7.00;;;;;;;;5092341;28;11381;-86
2022/12/04 20:44:00;;;;;;;;;7.00;7.00;;;;;;;;5092528;28;11382;-83
2022/12/04 20:46:27;;;;;;;;;5.75;5.25;;;;;;;;5105390;28;8900;-84
2022/12/04 20:48:53;;;;;;;;;7.00;7.00;;;;;;;;5108249;28;11450;-84
2022/12/04 20:51:20;;;;;;;;;9.00;9.00;;;;;;;;5092399;28;11423;-83
2022/12/04 20:53:46;;;;;;;;;9.00;9.00;;;;;;;;5091934;28;8880;-82
2022/12/04 20:56:11;;;;;;;;;7.00;7.00;;;;;;;;5092400;28;11388;-76
2022/12/04 20:58:37;;;;;;;;;8.50;8.50;;;;;;;;5091986;28;11670;-76
2022/12/04 21:01:06;;;;;;;;;9.00;7.00;;;;;;;;5084764;28;11730;-76
2022/12/04 21:03:31;;;;;;;;;8.50;7.00;;;;;;;;5033501;28;10347;-76
2022/12/04 21:05:57;;;;;;;;;10.00;7.00;;;;;;;;5064156;28;11400;-76
2022/12/04 21:08:51;;;;;;;;;9.25;7.00;;;;;;;;5054635;28;8847;-76
2022/12/04 21:11:07;;;;;;;;;9.75;7.00;;;;;;;;5051152;28;8829;-76
2022/12/04 21:16:16;;;;;;;;;6.00;6.00;;;;;;;;5062767;28;9524;-81
2022/12/04 21:18:41;;;;;;;;;11.75;7.50;;;;;;;;5103088;28;11453;-85
2022/12/04 21:21:07;;;;;;;;;5.75;5.75;;;;;;;;5071135;28;8940;-76
2022/12/04 21:23:34;;;;;;;;;6.25;6.25;;;;;;;;5071041;28;8825;-75
2022/12/04 21:25:59;;;;;;;;;11.25;10.00;;;;;;;;5070770;28;8806;-76
2022/12/04 21:28:25;;;;;;;;;8.00;6.25;;;;;;;;5067810;28;11681;-76
2022/12/04 21:30:50;;;;;;;;;7.75;6.00;;;;;;;;5069925;28;8849;-76
2022/12/04 21:33:15;;;;;;;;;10.25;8.00;;;;;;;;5069032;28;8795;-76
2022/12/04 21:35:40;;;;;;;;;8.50;8.00;;;;;;;;5069318;28;8887;-76
2022/12/04 21:38:06;;;;;;;;;9.25;9.00;;;;;;;;5069276;28;9577;-76
2022/12/04 21:40:32;;;;;;;;;6.75;6.00;;;;;;;;5078334;28;8802;-76
2022/12/04 21:42:57;;;;;;;;;9.25;7.00;;;;;;;;5080092;28;8819;-76
2022/12/04 21:45:22;;;;;;;;;8.25;6.75;;;;;;;;5075356;28;9553;-76
2022/12/04 21:47:47;;;;;;;;;10.50;9.50;;;;;;;;5074675;28;8868;-77
2022/12/04 21:50:13;;;;;;;;;14.75;10.00;;;;;;;;5079262;28;8870;-75
2022/12/04 21:52:38;;;;;;;;;8.00;8.00;;;;;;;;5077271;28;8925;-74
2022/12/04 21:55:04;;;;;;;;;7.00;7.00;;;;;;;;5072504;28;8880;-80
2022/12/04 21:57:29;;;;;;;;;10.75;8.50;;;;;;;;5069733;28;8787;-78
2022/12/04 21:59:54;;;;;;;;;7.00;7.00;;;;;;;;5069342;28;8817;-79
2022/12/04 22:02:19;;;;;;;;;11.00;7.00;;;;;;;;5069616;28;8791;-79
2022/12/04 22:04:45;;;;;;;;;8.00;8.00;;;;;;;;5069889;28;8775;-79
2022/12/04 22:07:10;;;;;;;;;10.50;9.00;;;;;;;;5068410;28;8861;-80
2022/12/04 22:09:36;;;;;;;;;11.00;8.00;;;;;;;;5070052;28;8801;-79
2022/12/04 22:12:01;;;;;;;;;6.75;5.00;;;;;;;;5070178;28;8814;-79
2022/12/04 22:14:27;;;;;;;;;7.00;4.00;;;;;;;;5070550;28;8790;-79
2022/12/04 22:16:53;;;;;;;;;3.50;2.75;;;;;;;;5070497;28;8790;-79
2022/12/04 22:19:18;;;;;;;;;9.00;6.25;;;;;;;;5070515;28;9536;-79
2022/12/04 22:21:43;;;;;;;;;5.50;3.00;;;;;;;;5070007;28;11392;-80
2022/12/04 22:24:11;;;;;;;;;5.00;5.00;;;;;;;;5070137;28;8789;-79
2022/12/04 22:26:37;;;;;;;;;5.00;5.00;;;;;;;;5070258;28;8850;-80
2022/12/04 22:29:03;;;;;;;;;5.50;5.00;;;;;;;;5070236;28;11366;-78
2022/12/04 22:31:29;;;;;;;;;4.50;4.50;;;;;;;;5070220;28;8923;-78
2022/12/04 22:33:55;;;;;;;;;2.00;2.00;;;;;;;;5062743;28;8805;-78
2022/12/04 22:36:21;;;;;;;;;5.00;3.00;;;;;;;;5056938;28;8792;-78
2022/12/04 22:38:47;;;;;;;;;5.50;3.50;;;;;;;;5081649;28;12175;-79
2022/12/04 22:41:14;;;;;;;;;6.00;3.00;;;;;;;;5050082;28;11409;-79
2022/12/04 22:43:39;;;;;;;;;7.00;6.00;;;;;;;;5050088;28;8781;-79
2022/12/04 22:46:05;;;;;;;;;5.00;5.00;;;;;;;;5059761;28;11445;-78
2022/12/04 22:48:31;;;;;;;;;5.00;5.00;;;;;;;;5070167;28;8763;-79
2022/12/04 22:50:57;;;;;;;;;6.00;6.00;;;;;;;;5068498;28;8817;-79
2022/12/04 22:53:23;;;;;;;;;5.75;5.75;;;;;;;;5069647;28;11396;-78
2022/12/04 22:55:49;;;;;;;;;6.75;4.75;;;;;;;;5069707;28;11377;-78
2022/12/04 22:58:14;;;;;;;;;5.25;5.25;;;;;;;;5070200;28;8887;-78
2022/12/04 23:00:39;;;;;;;;;5.00;5.00;;;;;;;;5069817;28;8825;-78
2022/12/04 23:03:04;;;;;;;;;6.25;5.25;;;;;;;;5069754;28;8795;-78
2022/12/04 23:05:31;;;;;;;;;5.00;5.00;;;;;;;;5068520;28;8807;-77
2022/12/04 23:07:57;;;;;;;;;6.25;2.75;;;;;;;;5101895;28;8953;-77
2022/12/04 23:10:22;;;;;;;;;7.00;6.00;;;;;;;;5068147;28;11551;-77
2022/12/04 23:12:47;;;;;;;;;19.25;14.00;;;;;;;;5070317;28;8818;-77
2022/12/04 23:15:13;;;;;;;;;30.25;24.75;;;;;;;;5072956;28;8807;-77
2022/12/04 23:17:38;;;;;;;;;5.50;4.50;;;;;;;;5072106;28;8790;-77
2022/12/04 23:20:03;;;;;;;;;4.00;4.00;;;;;;;;5072258;28;8937;-77
2022/12/04 23:22:29;;;;;;;;;3.25;3.25;;;;;;;;5073458;28;8783;-77
2022/12/04 23:24:54;;;;;;;;;4.50;4.50;;;;;;;;5073421;28;8841;-77
2022/12/04 23:27:19;;;;;;;;;6.75;6.75;;;;;;;;5071895;28;8836;-78
2022/12/04 23:29:45;;;;;;;;;4.50;4.00;;;;;;;;5073282;28;8817;-77
2022/12/04 23:32:11;;;;;;;;;4.00;3.25;;;;;;;;5073347;28;8806;-76
2022/12/04 23:34:37;;;;;;;;;6.25;4.00;;;;;;;;5072859;28;12472;-77
2022/12/04 23:37:02;;;;;;;;;3.00;3.00;;;;;;;;5071945;28;8814;-76
2022/12/04 23:39:27;;;;;;;;;6.00;4.00;;;;;;;;5072014;28;11449;-77
2022/12/04 23:41:52;;;;;;;;;6.00;3.75;;;;;;;;5073265;28;8805;-76
2022/12/04 23:44:18;;;;;;;;;6.25;6.25;;;;;;;;5073099;28;8814;-75
2022/12/04 23:46:43;;;;;;;;;0.25;0.00;;;;;;;;5073090;28;8933;-75
2022/12/04 23:49:08;;;;;;;;;5.50;3.75;;;;;;;;5072950;28;8837;-75
2022/12/04 23:51:33;;;;;;;;;6.75;6.75;;;;;;;;5072231;28;8826;-76
2022/12/04 23:53:59;;;;;;;;;6.75;6.75;;;;;;;;5072608;28;8818;-75
2022/12/04 23:56:25;;;;;;;;;7.25;7.25;;;;;;;;5072859;28;9752;-75
2022/12/04 23:58:51;;;;;;;;;7.00;7.00;;;;;;;;5073500;28;8802;-75
